sensor_id;sensor_type;location;lat;lon;timestamp;P1;durP1;ratioP1;P2;durP2;ratioP2
31716;SDS011;18301;51.076;17.046;2023-03-01T00:03:07;65.85;;;29.23;;
31716;SDS011;18301;51.076;17.046;2023-03-01T00:08:09;70.55;;;30.98;;
31716;SDS011;18301;51.076;17.046;2023-03-01T00:13:10;71.63;;;31.40;;
31716;SDS011;18301;51.076;17.046;2023-03-01T00:18:12;73.18;;;31.83;;
31716;SDS011;18301;51.076;17.046;2023-03-01T00:23:13;65.70;;;30.52;;
31716;SDS011;18301;51.076;17.046;2023-03-01T00:28:15;69.60;;;30.63;;
31716;SDS011;18301;51.076;17.046;2023-03-01T00:33:17;68.65;;;31.73;;
31716;SDS011;18301;51.076;17.046;2023-03-01T00:38:19;72.07;;;33.53;;
31716;SDS011;18301;51.076;17.046;2023-03-01T00:43:20;73.40;;;34.38;;
31716;SDS011;18301;51.076;17.046;2023-03-01T00:48:22;81.07;;;36.05;;
31716;SDS011;18301;51.076;17.046;2023-03-01T00:53:23;79.95;;;34.97;;
31716;SDS011;18301;51.076;17.046;2023-03-01T00:58:25;75.28;;;34.35;;
31716;SDS011;18301;51.076;17.046;2023-03-01T01:03:27;69.40;;;32.78;;
31716;SDS011;18301;51.076;17.046;2023-03-01T01:08:28;76.65;;;33.13;;
31716;SDS011;18301;51.076;17.046;2023-03-01T01:13:30;79.03;;;34.30;;
31716;SDS011;18301;51.076;17.046;2023-03-01T01:18:31;70.50;;;33.40;;
31716;SDS011;18301;51.076;17.046;2023-03-01T01:23:33;78.53;;;34.70;;
31716;SDS011;18301;51.076;17.046;2023-03-01T01:28:35;72.60;;;33.65;;
31716;SDS011;18301;51.076;17.046;2023-03-01T01:33:37;79.65;;;35.17;;
31716;SDS011;18301;51.076;17.046;2023-03-01T01:38:38;80.63;;;34.05;;
31716;SDS011;18301;51.076;17.046;2023-03-01T01:43:41;79.80;;;35.15;;
31716;SDS011;18301;51.076;17.046;2023-03-01T01:48:45;78.82;;;34.33;;
31716;SDS011;18301;51.076;17.046;2023-03-01T01:53:51;76.43;;;34.08;;
31716;SDS011;18301;51.076;17.046;2023-03-01T01:58:57;82.68;;;35.55;;
31716;SDS011;18301;51.076;17.046;2023-03-01T02:03:58;82.53;;;34.35;;
31716;SDS011;18301;51.076;17.046;2023-03-01T02:09:02;75.22;;;33.88;;
31716;SDS011;18301;51.076;17.046;2023-03-01T02:14:07;80.07;;;34.08;;
31716;SDS011;18301;51.076;17.046;2023-03-01T02:19:11;78.18;;;33.60;;
31716;SDS011;18301;51.076;17.046;2023-03-01T02:30:04;75.65;;;34.45;;
31716;SDS011;18301;51.076;17.046;2023-03-01T02:35:08;73.70;;;33.53;;
31716;SDS011;18301;51.076;17.046;2023-03-01T02:40:16;79.22;;;34.40;;
31716;SDS011;18301;51.076;17.046;2023-03-01T02:45:19;73.40;;;32.53;;
31716;SDS011;18301;51.076;17.046;2023-03-01T02:50:25;73.25;;;33.85;;
31716;SDS011;18301;51.076;17.046;2023-03-01T02:55:56;73.57;;;33.00;;
31716;SDS011;18301;51.076;17.046;2023-03-01T03:00:58;71.43;;;33.45;;
31716;SDS011;18301;51.076;17.046;2023-03-01T03:06:02;74.05;;;33.80;;
31716;SDS011;18301;51.076;17.046;2023-03-01T03:11:03;69.07;;;32.60;;
31716;SDS011;18301;51.076;17.046;2023-03-01T03:16:05;75.88;;;33.95;;
31716;SDS011;18301;51.076;17.046;2023-03-01T03:21:07;71.45;;;32.97;;
31716;SDS011;18301;51.076;17.046;2023-03-01T03:26:11;70.18;;;32.58;;
31716;SDS011;18301;51.076;17.046;2023-03-01T03:31:14;82.30;;;33.97;;
31716;SDS011;18301;51.076;17.046;2023-03-01T03:36:16;77.88;;;34.92;;
31716;SDS011;18301;51.076;17.046;2023-03-01T03:41:18;85.40;;;35.67;;
31716;SDS011;18301;51.076;17.046;2023-03-01T03:46:20;86.57;;;35.17;;
31716;SDS011;18301;51.076;17.046;2023-03-01T03:51:22;79.70;;;34.22;;
31716;SDS011;18301;51.076;17.046;2023-03-01T03:56:23;87.25;;;35.95;;
31716;SDS011;18301;51.076;17.046;2023-03-01T04:01:29;90.45;;;36.20;;
31716;SDS011;18301;51.076;17.046;2023-03-01T04:06:30;85.43;;;36.30;;
31716;SDS011;18301;51.076;17.046;2023-03-01T04:11:32;87.78;;;35.00;;
31716;SDS011;18301;51.076;17.046;2023-03-01T04:16:35;84.40;;;35.20;;
31716;SDS011;18301;51.076;17.046;2023-03-01T04:21:37;77.40;;;33.88;;
31716;SDS011;18301;51.076;17.046;2023-03-01T04:26:38;75.13;;;32.75;;
31716;SDS011;18301;51.076;17.046;2023-03-01T04:31:40;71.30;;;32.75;;
31716;SDS011;18301;51.076;17.046;2023-03-01T04:36:42;75.70;;;32.20;;
31716;SDS011;18301;51.076;17.046;2023-03-01T04:41:44;69.97;;;30.98;;
31716;SDS011;18301;51.076;17.046;2023-03-01T04:46:48;70.78;;;31.90;;
31716;SDS011;18301;51.076;17.046;2023-03-01T04:51:50;68.50;;;30.92;;
31716;SDS011;18301;51.076;17.046;2023-03-01T04:56:52;72.20;;;32.17;;
31716;SDS011;18301;51.076;17.046;2023-03-01T05:01:53;71.60;;;30.95;;
31716;SDS011;18301;51.076;17.046;2023-03-01T05:06:57;70.88;;;30.95;;
31716;SDS011;18301;51.076;17.046;2023-03-01T05:11:59;70.45;;;31.05;;
31716;SDS011;18301;51.076;17.046;2023-03-01T05:17:01;68.15;;;30.58;;
31716;SDS011;18301;51.076;17.046;2023-03-01T05:22:05;67.65;;;30.45;;
31716;SDS011;18301;51.076;17.046;2023-03-01T05:27:06;68.78;;;31.20;;
31716;SDS011;18301;51.076;17.046;2023-03-01T05:32:08;74.63;;;31.05;;
31716;SDS011;18301;51.076;17.046;2023-03-01T05:37:10;60.92;;;30.58;;
31716;SDS011;18301;51.076;17.046;2023-03-01T05:42:12;66.72;;;30.33;;
31716;SDS011;18301;51.076;17.046;2023-03-01T05:47:13;74.93;;;32.55;;
31716;SDS011;18301;51.076;17.046;2023-03-01T05:52:15;67.95;;;31.33;;
31716;SDS011;18301;51.076;17.046;2023-03-01T05:57:16;71.55;;;32.47;;
31716;SDS011;18301;51.076;17.046;2023-03-01T06:02:18;73.43;;;33.33;;
31716;SDS011;18301;51.076;17.046;2023-03-01T06:07:19;69.05;;;32.95;;
31716;SDS011;18301;51.076;17.046;2023-03-01T06:12:21;80.03;;;34.50;;
31716;SDS011;18301;51.076;17.046;2023-03-01T06:17:22;72.93;;;33.38;;
31716;SDS011;18301;51.076;17.046;2023-03-01T06:22:24;75.25;;;35.03;;
31716;SDS011;18301;51.076;17.046;2023-03-01T06:27:25;80.32;;;35.03;;
31716;SDS011;18301;51.076;17.046;2023-03-01T06:32:27;79.60;;;36.38;;
31716;SDS011;18301;51.076;17.046;2023-03-01T06:37:28;79.00;;;34.75;;
31716;SDS011;18301;51.076;17.046;2023-03-01T06:42:30;83.45;;;35.45;;
31716;SDS011;18301;51.076;17.046;2023-03-01T06:47:32;80.78;;;34.55;;
31716;SDS011;18301;51.076;17.046;2023-03-01T06:52:34;89.47;;;35.38;;
31716;SDS011;18301;51.076;17.046;2023-03-01T06:57:36;86.28;;;39.45;;
31716;SDS011;18301;51.076;17.046;2023-03-01T07:02:37;82.70;;;36.03;;
31716;SDS011;18301;51.076;17.046;2023-03-01T07:07:39;83.85;;;37.33;;
31716;SDS011;18301;51.076;17.046;2023-03-01T07:12:40;82.82;;;36.53;;
31716;SDS011;18301;51.076;17.046;2023-03-01T07:17:42;85.60;;;37.30;;
31716;SDS011;18301;51.076;17.046;2023-03-01T07:22:45;78.93;;;36.67;;
31716;SDS011;18301;51.076;17.046;2023-03-01T07:27:50;83.07;;;38.08;;
31716;SDS011;18301;51.076;17.046;2023-03-01T07:32:53;69.30;;;34.00;;
31716;SDS011;18301;51.076;17.046;2023-03-01T07:37:56;75.00;;;35.60;;
31716;SDS011;18301;51.076;17.046;2023-03-01T07:42:57;83.90;;;38.28;;
31716;SDS011;18301;51.076;17.046;2023-03-01T07:47:59;79.03;;;37.75;;
31716;SDS011;18301;51.076;17.046;2023-03-01T07:53:01;81.55;;;37.67;;
31716;SDS011;18301;51.076;17.046;2023-03-01T07:58:03;68.60;;;32.67;;
31716;SDS011;18301;51.076;17.046;2023-03-01T08:03:05;69.38;;;31.33;;
31716;SDS011;18301;51.076;17.046;2023-03-01T08:08:07;72.30;;;31.98;;
31716;SDS011;18301;51.076;17.046;2023-03-01T08:13:08;66.90;;;31.33;;
31716;SDS011;18301;51.076;17.046;2023-03-01T08:18:10;69.63;;;29.55;;
31716;SDS011;18301;51.076;17.046;2023-03-01T08:23:11;58.78;;;26.90;;
31716;SDS011;18301;51.076;17.046;2023-03-01T08:28:13;49.90;;;23.35;;
31716;SDS011;18301;51.076;17.046;2023-03-01T08:33:14;35.53;;;18.70;;
31716;SDS011;18301;51.076;17.046;2023-03-01T08:38:16;41.72;;;20.60;;
31716;SDS011;18301;51.076;17.046;2023-03-01T08:43:17;35.08;;;15.02;;
31716;SDS011;18301;51.076;17.046;2023-03-01T08:48:19;40.08;;;20.35;;
31716;SDS011;18301;51.076;17.046;2023-03-01T08:53:21;44.78;;;21.90;;
31716;SDS011;18301;51.076;17.046;2023-03-01T08:58:22;51.72;;;25.63;;
31716;SDS011;18301;51.076;17.046;2023-03-01T09:03:24;40.58;;;20.35;;
31716;SDS011;18301;51.076;17.046;2023-03-01T09:08:26;45.50;;;22.45;;
31716;SDS011;18301;51.076;17.046;2023-03-01T09:13:28;33.78;;;17.88;;
31716;SDS011;18301;51.076;17.046;2023-03-01T09:18:32;41.22;;;19.35;;
31716;SDS011;18301;51.076;17.046;2023-03-01T09:23:38;44.83;;;21.23;;
31716;SDS011;18301;51.076;17.046;2023-03-01T09:28:42;43.83;;;20.75;;
31716;SDS011;18301;51.076;17.046;2023-03-01T09:33:46;46.28;;;20.48;;
31716;SDS011;18301;51.076;17.046;2023-03-01T09:38:49;42.30;;;22.50;;
31716;SDS011;18301;51.076;17.046;2023-03-01T09:43:52;36.63;;;18.25;;
31716;SDS011;18301;51.076;17.046;2023-03-01T09:48:59;40.80;;;21.08;;
31716;SDS011;18301;51.076;17.046;2023-03-01T09:54:06;40.80;;;21.02;;
31716;SDS011;18301;51.076;17.046;2023-03-01T09:59:17;38.60;;;19.98;;
31716;SDS011;18301;51.076;17.046;2023-03-01T10:09:29;38.20;;;19.77;;
31716;SDS011;18301;51.076;17.046;2023-03-01T10:14:36;35.45;;;18.98;;
31716;SDS011;18301;51.076;17.046;2023-03-01T10:19:45;39.75;;;19.90;;
31716;SDS011;18301;51.076;17.046;2023-03-01T10:24:48;36.78;;;18.33;;
31716;SDS011;18301;51.076;17.046;2023-03-01T10:35:23;37.50;;;17.92;;
31716;SDS011;18301;51.076;17.046;2023-03-01T10:40:26;35.15;;;17.02;;
31716;SDS011;18301;51.076;17.046;2023-03-01T10:45:38;32.20;;;16.23;;
31716;SDS011;18301;51.076;17.046;2023-03-01T10:50:41;29.75;;;15.95;;
31716;SDS011;18301;51.076;17.046;2023-03-01T10:55:44;33.40;;;16.88;;
31716;SDS011;18301;51.076;17.046;2023-03-01T11:00:50;28.40;;;16.00;;
31716;SDS011;18301;51.076;17.046;2023-03-01T11:11:04;28.98;;;15.25;;
31716;SDS011;18301;51.076;17.046;2023-03-01T11:16:10;27.30;;;13.90;;
31716;SDS011;18301;51.076;17.046;2023-03-01T11:21:14;34.50;;;16.25;;
31716;SDS011;18301;51.076;17.046;2023-03-01T11:26:17;33.78;;;17.05;;
31716;SDS011;18301;51.076;17.046;2023-03-01T11:31:19;30.05;;;16.60;;
31716;SDS011;18301;51.076;17.046;2023-03-01T11:41:38;31.10;;;17.10;;
31716;SDS011;18301;51.076;17.046;2023-03-01T11:46:45;28.23;;;15.77;;
31716;SDS011;18301;51.076;17.046;2023-03-01T11:52:12;32.55;;;14.35;;
31716;SDS011;18301;51.076;17.046;2023-03-01T12:08:13;18.58;;;10.23;;
31716;SDS011;18301;51.076;17.046;2023-03-01T12:24:26;17.45;;;9.52;;
31716;SDS011;18301;51.076;17.046;2023-03-01T12:40:33;28.23;;;14.35;;
31716;SDS011;18301;51.076;17.046;2023-03-01T12:46:39;23.35;;;11.38;;
31716;SDS011;18301;51.076;17.046;2023-03-01T12:51:24;29.05;;;15.43;;
31716;SDS011;18301;51.076;17.046;2023-03-01T12:56:28;27.77;;;13.23;;
31716;SDS011;18301;51.076;17.046;2023-03-01T13:11:56;13.15;;;7.32;;
31716;SDS011;18301;51.076;17.046;2023-03-01T13:16:58;17.73;;;7.93;;
31716;SDS011;18301;51.076;17.046;2023-03-01T13:22:00;13.07;;;7.15;;
31716;SDS011;18301;51.076;17.046;2023-03-01T13:27:29;13.98;;;7.30;;
31716;SDS011;18301;51.076;17.046;2023-03-01T13:32:35;13.38;;;7.47;;
31716;SDS011;18301;51.076;17.046;2023-03-01T13:37:45;14.30;;;7.70;;
31716;SDS011;18301;51.076;17.046;2023-03-01T13:42:47;15.93;;;8.65;;
31716;SDS011;18301;51.076;17.046;2023-03-01T13:48:10;18.60;;;9.32;;
31716;SDS011;18301;51.076;17.046;2023-03-01T13:53:18;16.35;;;9.55;;
31716;SDS011;18301;51.076;17.046;2023-03-01T13:58:24;17.75;;;9.43;;
31716;SDS011;18301;51.076;17.046;2023-03-01T14:03:27;18.77;;;10.43;;
31716;SDS011;18301;51.076;17.046;2023-03-01T14:08:30;20.70;;;10.50;;
31716;SDS011;18301;51.076;17.046;2023-03-01T14:24:39;17.38;;;10.30;;
31716;SDS011;18301;51.076;17.046;2023-03-01T14:29:55;16.50;;;9.43;;
31716;SDS011;18301;51.076;17.046;2023-03-01T14:35:21;18.42;;;10.02;;
31716;SDS011;18301;51.076;17.046;2023-03-01T14:40:30;20.27;;;10.43;;
31716;SDS011;18301;51.076;17.046;2023-03-01T14:45:34;20.60;;;11.18;;
31716;SDS011;18301;51.076;17.046;2023-03-01T14:50:36;21.77;;;11.88;;
31716;SDS011;18301;51.076;17.046;2023-03-01T14:55:44;22.52;;;11.45;;
31716;SDS011;18301;51.076;17.046;2023-03-01T15:00:59;24.05;;;12.02;;
31716;SDS011;18301;51.076;17.046;2023-03-01T15:06:03;23.88;;;13.60;;
31716;SDS011;18301;51.076;17.046;2023-03-01T15:11:21;24.85;;;13.20;;
31716;SDS011;18301;51.076;17.046;2023-03-01T15:16:29;23.40;;;13.10;;
31716;SDS011;18301;51.076;17.046;2023-03-01T15:21:34;21.02;;;11.57;;
31716;SDS011;18301;51.076;17.046;2023-03-01T15:26:41;20.73;;;12.18;;
31716;SDS011;18301;51.076;17.046;2023-03-01T15:31:53;24.08;;;12.63;;
31716;SDS011;18301;51.076;17.046;2023-03-01T15:37:06;21.73;;;11.90;;
31716;SDS011;18301;51.076;17.046;2023-03-01T15:42:36;24.77;;;12.68;;
31716;SDS011;18301;51.076;17.046;2023-03-01T15:47:39;21.95;;;12.00;;
31716;SDS011;18301;51.076;17.046;2023-03-01T15:52:42;25.05;;;12.68;;
31716;SDS011;18301;51.076;17.046;2023-03-01T15:57:44;23.02;;;12.23;;
31716;SDS011;18301;51.076;17.046;2023-03-01T16:02:46;23.20;;;12.63;;
31716;SDS011;18301;51.076;17.046;2023-03-01T16:07:47;26.85;;;13.38;;
31716;SDS011;18301;51.076;17.046;2023-03-01T16:12:49;33.17;;;16.88;;
31716;SDS011;18301;51.076;17.046;2023-03-01T16:17:53;28.98;;;16.58;;
31716;SDS011;18301;51.076;17.046;2023-03-01T16:22:57;33.70;;;15.45;;
31716;SDS011;18301;51.076;17.046;2023-03-01T16:28:01;31.13;;;16.52;;
31716;SDS011;18301;51.076;17.046;2023-03-01T16:33:06;31.40;;;15.90;;
31716;SDS011;18301;51.076;17.046;2023-03-01T16:38:29;30.85;;;15.32;;
31716;SDS011;18301;51.076;17.046;2023-03-01T16:43:32;29.25;;;14.80;;
31716;SDS011;18301;51.076;17.046;2023-03-01T16:48:34;31.90;;;14.32;;
31716;SDS011;18301;51.076;17.046;2023-03-01T16:53:35;39.65;;;14.90;;
31716;SDS011;18301;51.076;17.046;2023-03-01T16:58:38;32.10;;;16.48;;
31716;SDS011;18301;51.076;17.046;2023-03-01T17:03:41;37.65;;;18.45;;
31716;SDS011;18301;51.076;17.046;2023-03-01T17:08:43;42.17;;;18.50;;
31716;SDS011;18301;51.076;17.046;2023-03-01T17:13:44;46.08;;;21.77;;
31716;SDS011;18301;51.076;17.046;2023-03-01T17:18:47;43.33;;;20.75;;
31716;SDS011;18301;51.076;17.046;2023-03-01T17:23:49;66.68;;;26.83;;
31716;SDS011;18301;51.076;17.046;2023-03-01T17:28:56;58.13;;;23.83;;
31716;SDS011;18301;51.076;17.046;2023-03-01T17:33:59;62.45;;;26.92;;
31716;SDS011;18301;51.076;17.046;2023-03-01T17:39:02;67.35;;;26.00;;
31716;SDS011;18301;51.076;17.046;2023-03-01T17:44:03;60.40;;;24.73;;
31716;SDS011;18301;51.076;17.046;2023-03-01T17:49:05;55.90;;;24.65;;
31716;SDS011;18301;51.076;17.046;2023-03-01T17:54:06;51.60;;;23.65;;
31716;SDS011;18301;51.076;17.046;2023-03-01T17:59:07;47.22;;;22.50;;
31716;SDS011;18301;51.076;17.046;2023-03-01T18:04:09;50.08;;;22.80;;
31716;SDS011;18301;51.076;17.046;2023-03-01T18:09:11;48.88;;;22.52;;
31716;SDS011;18301;51.076;17.046;2023-03-01T18:14:12;47.15;;;22.45;;
31716;SDS011;18301;51.076;17.046;2023-03-01T18:19:14;51.28;;;21.80;;
31716;SDS011;18301;51.076;17.046;2023-03-01T18:24:15;47.35;;;21.80;;
31716;SDS011;18301;51.076;17.046;2023-03-01T18:29:17;46.20;;;22.92;;
31716;SDS011;18301;51.076;17.046;2023-03-01T18:34:18;49.35;;;24.17;;
31716;SDS011;18301;51.076;17.046;2023-03-01T18:39:20;70.63;;;30.30;;
31716;SDS011;18301;51.076;17.046;2023-03-01T18:44:21;77.28;;;33.05;;
31716;SDS011;18301;51.076;17.046;2023-03-01T18:49:23;90.03;;;38.20;;
31716;SDS011;18301;51.076;17.046;2023-03-01T18:54:26;93.40;;;39.47;;
31716;SDS011;18301;51.076;17.046;2023-03-01T18:59:27;89.35;;;37.65;;
31716;SDS011;18301;51.076;17.046;2023-03-01T19:04:30;98.85;;;40.97;;
31716;SDS011;18301;51.076;17.046;2023-03-01T19:09:31;127.95;;;51.30;;
31716;SDS011;18301;51.076;17.046;2023-03-01T19:14:33;108.95;;;45.80;;
31716;SDS011;18301;51.076;17.046;2023-03-01T19:19:35;102.68;;;41.80;;
31716;SDS011;18301;51.076;17.046;2023-03-01T19:24:36;90.75;;;38.72;;
31716;SDS011;18301;51.076;17.046;2023-03-01T19:29:38;97.57;;;39.60;;
31716;SDS011;18301;51.076;17.046;2023-03-01T19:34:39;106.68;;;40.92;;
31716;SDS011;18301;51.076;17.046;2023-03-01T19:39:42;103.95;;;42.58;;
31716;SDS011;18301;51.076;17.046;2023-03-01T19:44:43;114.43;;;44.58;;
31716;SDS011;18301;51.076;17.046;2023-03-01T19:49:45;167.25;;;57.72;;
31716;SDS011;18301;51.076;17.046;2023-03-01T19:54:47;134.57;;;51.85;;
31716;SDS011;18301;51.076;17.046;2023-03-01T19:59:50;150.55;;;56.53;;
31716;SDS011;18301;51.076;17.046;2023-03-01T20:04:52;154.95;;;57.65;;
31716;SDS011;18301;51.076;17.046;2023-03-01T20:09:53;151.27;;;58.17;;
31716;SDS011;18301;51.076;17.046;2023-03-01T20:14:54;142.35;;;55.20;;
31716;SDS011;18301;51.076;17.046;2023-03-01T20:19:57;147.35;;;55.92;;
31716;SDS011;18301;51.076;17.046;2023-03-01T20:24:58;132.40;;;52.35;;
31716;SDS011;18301;51.076;17.046;2023-03-01T20:30:00;147.27;;;57.75;;
31716;SDS011;18301;51.076;17.046;2023-03-01T20:35:01;158.32;;;61.17;;
31716;SDS011;18301;51.076;17.046;2023-03-01T20:40:03;146.18;;;55.70;;
31716;SDS011;18301;51.076;17.046;2023-03-01T20:45:05;152.10;;;57.85;;
31716;SDS011;18301;51.076;17.046;2023-03-01T20:50:07;136.25;;;52.70;;
31716;SDS011;18301;51.076;17.046;2023-03-01T20:55:09;157.30;;;56.22;;
31716;SDS011;18301;51.076;17.046;2023-03-01T21:00:12;138.77;;;52.58;;
31716;SDS011;18301;51.076;17.046;2023-03-01T21:05:13;147.55;;;53.70;;
31716;SDS011;18301;51.076;17.046;2023-03-01T21:10:15;142.80;;;53.45;;
31716;SDS011;18301;51.076;17.046;2023-03-01T21:15:17;132.20;;;52.28;;
31716;SDS011;18301;51.076;17.046;2023-03-01T21:20:29;148.63;;;56.63;;
31716;SDS011;18301;51.076;17.046;2023-03-01T21:25:31;143.85;;;57.17;;
31716;SDS011;18301;51.076;17.046;2023-03-01T21:30:35;145.93;;;55.63;;
31716;SDS011;18301;51.076;17.046;2023-03-01T21:35:36;145.48;;;55.05;;
31716;SDS011;18301;51.076;17.046;2023-03-01T21:40:38;140.25;;;54.85;;
31716;SDS011;18301;51.076;17.046;2023-03-01T21:45:39;144.02;;;54.10;;
31716;SDS011;18301;51.076;17.046;2023-03-01T21:50:41;141.45;;;53.13;;
31716;SDS011;18301;51.076;17.046;2023-03-01T21:55:46;134.52;;;52.00;;
31716;SDS011;18301;51.076;17.046;2023-03-01T22:00:48;137.40;;;52.05;;
31716;SDS011;18301;51.076;17.046;2023-03-01T22:05:54;124.03;;;50.33;;
31716;SDS011;18301;51.076;17.046;2023-03-01T22:11:00;131.98;;;51.75;;
31716;SDS011;18301;51.076;17.046;2023-03-01T22:16:02;121.28;;;47.13;;
31716;SDS011;18301;51.076;17.046;2023-03-01T22:21:07;116.50;;;43.88;;
31716;SDS011;18301;51.076;17.046;2023-03-01T22:26:19;108.82;;;42.47;;
31716;SDS011;18301;51.076;17.046;2023-03-01T22:31:35;109.97;;;40.92;;
31716;SDS011;18301;51.076;17.046;2023-03-01T22:36:37;102.57;;;40.58;;
31716;SDS011;18301;51.076;17.046;2023-03-01T22:41:42;97.25;;;37.92;;
31716;SDS011;18301;51.076;17.046;2023-03-01T22:46:46;106.45;;;38.58;;
31716;SDS011;18301;51.076;17.046;2023-03-01T22:51:48;108.00;;;41.88;;
31716;SDS011;18301;51.076;17.046;2023-03-01T22:56:50;107.57;;;41.33;;
31716;SDS011;18301;51.076;17.046;2023-03-01T23:01:52;97.90;;;39.90;;
31716;SDS011;18301;51.076;17.046;2023-03-01T23:06:53;108.38;;;42.78;;
31716;SDS011;18301;51.076;17.046;2023-03-01T23:11:55;108.53;;;43.55;;
31716;SDS011;18301;51.076;17.046;2023-03-01T23:16:59;117.80;;;43.95;;
31716;SDS011;18301;51.076;17.046;2023-03-01T23:22:01;114.30;;;45.03;;
31716;SDS011;18301;51.076;17.046;2023-03-01T23:27:03;117.80;;;45.60;;
31716;SDS011;18301;51.076;17.046;2023-03-01T23:32:04;114.47;;;44.65;;
31716;SDS011;18301;51.076;17.046;2023-03-01T23:37:06;121.22;;;45.50;;
31716;SDS011;18301;51.076;17.046;2023-03-01T23:42:10;131.75;;;47.10;;
31716;SDS011;18301;51.076;17.046;2023-03-01T23:47:11;119.18;;;43.88;;
31716;SDS011;18301;51.076;17.046;2023-03-01T23:52:12;124.70;;;46.60;;
31716;SDS011;18301;51.076;17.046;2023-03-01T23:57:15;131.98;;;47.38;;
